createdAt,value
2023-04-27T05:03:32.949Z,19.99
2023-04-27T05:04:33.909Z,20.19
2023-04-27T05:05:33.876Z,20.26
2023-04-27T05:06:33.912Z,20.30
2023-04-27T05:07:33.936Z,20.34
2023-04-27T05:08:33.973Z,20.36
2023-04-27T05:09:34.003Z,20.38
2023-04-27T05:10:33.000Z,20.40
2023-04-27T05:11:34.002Z,20.41
2023-04-27T05:12:34.051Z,20.43
2023-04-27T05:13:34.080Z,20.44
2023-04-27T05:14:33.086Z,20.44
2023-04-27T05:15:34.124Z,20.45
2023-04-27T05:16:33.167Z,20.46
2023-04-27T05:17:33.262Z,20.47
2023-04-27T05:18:33.317Z,20.47
2023-04-27T05:19:33.381Z,20.48
2023-04-27T05:20:33.425Z,20.49
2023-04-27T05:21:33.483Z,20.49
2023-04-27T05:22:34.553Z,20.49
2023-04-27T05:23:34.611Z,20.50
2023-04-27T05:24:33.691Z,20.50
2023-04-27T05:25:33.722Z,20.51
2023-04-27T05:26:33.772Z,20.50
2023-04-27T05:27:34.818Z,20.51
2023-04-27T05:28:34.889Z,20.52
2023-04-27T05:29:33.928Z,20.52
2023-04-27T05:30:35.008Z,20.52
2023-04-27T05:31:35.110Z,20.51
2023-04-27T05:32:35.134Z,20.52
2023-04-27T05:33:35.136Z,20.52
2023-04-27T05:34:35.192Z,20.53
2023-04-27T05:35:34.241Z,20.53
2023-04-27T05:36:34.256Z,20.55
2023-04-27T05:37:34.298Z,20.57
2023-04-27T05:38:35.345Z,20.58
2023-04-27T05:39:35.372Z,20.59
2023-04-27T05:40:35.395Z,20.61
2023-04-27T05:41:35.458Z,20.62
2023-04-27T05:42:35.444Z,20.63
2023-04-27T05:43:34.486Z,20.64
2023-04-27T05:44:34.503Z,20.65
2023-04-27T05:45:34.560Z,20.66
2023-04-27T05:46:38.441Z,20.67
2023-04-27T05:47:34.589Z,20.69
2023-04-27T05:48:35.570Z,20.67
2023-04-27T05:49:35.530Z,20.25
2023-04-27T05:50:35.516Z,19.69
2023-04-27T05:51:34.691Z,19.24
2023-04-27T05:52:36.972Z,18.80
2023-04-27T05:53:34.486Z,18.58
2023-04-27T05:54:35.496Z,18.44
2023-04-27T05:55:34.517Z,18.37
2023-04-27T05:56:34.483Z,18.18
2023-04-27T05:57:34.489Z,18.23
2023-04-27T05:58:35.454Z,18.43
2023-04-27T05:59:35.442Z,18.68
2023-04-27T06:00:34.434Z,18.94
2023-04-27T06:01:35.450Z,19.17
2023-04-27T06:02:35.524Z,19.38
2023-04-27T06:03:34.907Z,19.60
2023-04-27T06:04:35.461Z,19.78
2023-04-27T06:05:34.544Z,19.94
2023-04-27T06:06:34.409Z,20.09
2023-04-27T06:07:34.412Z,20.23
2023-04-27T06:08:35.384Z,20.35
2023-04-27T06:09:34.385Z,20.45
2023-04-27T06:10:35.389Z,20.54
2023-04-27T06:11:35.364Z,20.62
2023-04-27T06:12:35.365Z,20.72
2023-04-27T06:13:35.354Z,20.79
2023-04-27T06:14:34.340Z,20.86
2023-04-27T06:15:34.392Z,20.92
2023-04-27T06:16:35.347Z,20.96
2023-04-27T06:17:35.349Z,21.02
2023-04-27T06:18:35.311Z,21.06
2023-04-27T06:19:35.303Z,21.10
2023-04-27T06:20:35.283Z,21.13
2023-04-27T06:21:34.280Z,21.16
2023-04-27T06:22:35.276Z,21.19
2023-04-27T06:23:35.289Z,21.24
2023-04-27T06:24:35.266Z,21.29
2023-04-27T06:25:35.259Z,21.33
2023-04-27T06:26:35.252Z,21.35
2023-04-27T06:27:35.334Z,21.41
2023-04-27T06:28:34.337Z,21.47
2023-04-27T06:29:35.367Z,21.50
2023-04-27T06:30:37.012Z,21.55
2023-04-27T06:31:35.448Z,21.61
2023-04-27T06:32:35.411Z,21.63
2023-04-27T06:33:34.389Z,21.65
2023-04-27T06:34:35.374Z,21.68
2023-04-27T06:35:35.360Z,21.69
2023-04-27T06:36:35.354Z,21.71
2023-04-27T06:37:34.359Z,21.72
2023-04-27T06:38:35.353Z,21.72
2023-04-27T06:39:35.364Z,21.73
2023-04-27T06:40:34.357Z,21.73
2023-04-27T06:41:34.322Z,21.73
2023-04-27T06:42:35.313Z,21.74
2023-04-27T06:43:35.306Z,21.75
2023-04-27T06:44:35.315Z,21.76
2023-04-27T06:45:35.315Z,21.75
2023-04-27T06:46:34.350Z,21.76
2023-04-27T06:47:34.277Z,21.77
2023-04-27T06:48:34.287Z,21.78
2023-04-27T06:49:35.260Z,21.79
2023-04-27T06:50:34.264Z,21.81
2023-04-27T06:51:35.261Z,21.82
2023-04-27T06:52:34.235Z,21.84
2023-04-27T06:53:35.277Z,21.84
2023-04-27T06:54:34.225Z,21.82
2023-04-27T06:55:35.253Z,21.81
2023-04-27T06:56:35.236Z,21.80
2023-04-27T06:57:35.198Z,21.82
2023-04-27T06:58:34.186Z,21.80
2023-04-27T06:59:35.188Z,21.79
2023-04-27T07:00:35.173Z,21.77
2023-04-27T07:01:35.220Z,21.78
2023-04-27T07:02:34.221Z,21.81
2023-04-27T07:03:34.355Z,21.82
2023-04-27T07:04:34.241Z,21.85
2023-04-27T07:05:34.136Z,21.90
2023-04-27T07:06:34.153Z,21.96
2023-04-27T07:07:35.137Z,22.00
2023-04-27T07:08:34.126Z,22.04
2023-04-27T07:09:34.302Z,22.09
2023-04-27T07:10:34.114Z,22.11
2023-04-27T07:11:35.144Z,22.11
2023-04-27T07:12:34.117Z,22.12
2023-04-27T07:13:35.329Z,22.11
2023-04-27T07:14:34.080Z,22.12
2023-04-27T07:15:35.056Z,22.13
2023-04-27T07:16:35.092Z,22.15
2023-04-27T07:17:35.092Z,22.16
2023-04-27T07:18:34.046Z,22.16
2023-04-27T07:19:35.034Z,22.18
2023-04-27T07:20:35.047Z,22.23
2023-04-27T07:21:35.024Z,22.28
2023-04-27T07:22:34.002Z,22.33
2023-04-27T07:23:35.017Z,22.38
2023-04-27T07:24:33.993Z,22.39
2023-04-27T07:25:34.075Z,22.41
2023-04-27T07:26:34.991Z,22.42
2023-04-27T07:27:34.193Z,22.42
2023-04-27T07:28:34.965Z,22.44
2023-04-27T07:29:34.960Z,22.44
2023-04-27T07:30:33.947Z,22.46
2023-04-27T07:31:35.000Z,22.46
2023-04-27T07:32:33.992Z,22.48
2023-04-27T07:33:35.009Z,22.49
2023-04-27T07:34:49.141Z,22.50
2023-04-27T07:35:35.070Z,22.50
2023-04-27T07:36:35.045Z,22.50
2023-04-27T07:37:34.045Z,22.54
2023-04-27T07:38:35.061Z,22.56
2023-04-27T07:39:35.033Z,22.59
2023-04-27T07:40:35.031Z,22.61
2023-04-27T07:41:34.022Z,22.63
2023-04-27T07:42:35.064Z,22.65
2023-04-27T07:43:34.024Z,22.67
2023-04-27T07:44:33.991Z,22.68
2023-04-27T07:45:35.063Z,22.68
2023-04-27T07:46:34.981Z,22.73
2023-04-27T07:47:34.995Z,22.76
2023-04-27T07:48:34.987Z,22.72
2023-04-27T07:49:35.332Z,22.72
2023-04-27T07:50:34.949Z,22.73
2023-04-27T07:51:34.936Z,22.72
2023-04-27T07:52:34.945Z,22.70
2023-04-27T07:53:34.943Z,22.68
2023-04-27T07:54:34.922Z,22.67
2023-04-27T07:55:34.916Z,22.64
2023-04-27T07:56:34.896Z,22.63
2023-04-27T07:57:34.913Z,22.59
2023-04-27T07:58:33.891Z,22.57
2023-04-27T07:59:34.915Z,22.56
2023-04-27T08:00:33.883Z,22.54
2023-04-27T08:01:34.992Z,22.52
2023-04-27T08:02:35.066Z,22.50
2023-04-27T08:03:34.199Z,22.48
2023-04-27T08:04:35.319Z,22.47
2023-04-27T08:05:35.270Z,22.44
2023-04-27T08:06:34.327Z,22.42
2023-04-27T08:07:35.954Z,22.41
2023-04-27T08:08:34.823Z,22.39
2023-04-27T08:09:34.820Z,22.38
2023-04-27T08:10:33.815Z,22.37
2023-04-27T08:11:34.800Z,22.36
2023-04-27T08:12:33.788Z,22.34
2023-04-27T08:13:34.776Z,22.32
2023-04-27T08:14:33.778Z,22.31
2023-04-27T08:15:34.807Z,22.31
2023-04-27T08:16:34.796Z,22.30
2023-04-27T08:17:34.793Z,22.28
2023-04-27T08:18:33.749Z,22.27
2023-04-27T08:19:33.752Z,22.26
2023-04-27T08:20:33.731Z,22.26
2023-04-27T08:21:34.742Z,22.24
2023-04-27T08:22:33.736Z,22.23
2023-04-27T08:23:34.716Z,22.22
2023-04-27T08:24:33.731Z,22.21
2023-04-27T08:25:33.708Z,22.21
2023-04-27T08:26:33.740Z,22.19
2023-04-27T08:27:34.683Z,22.18
2023-04-27T08:28:33.678Z,22.18
2023-04-27T08:29:34.977Z,22.17
2023-04-27T08:30:33.781Z,22.16
2023-04-27T08:31:34.889Z,22.15
2023-04-27T08:32:34.968Z,22.15
2023-04-27T08:33:34.944Z,22.15
2023-04-27T08:34:34.010Z,22.13
2023-04-27T08:35:35.061Z,22.13
2023-04-27T08:36:34.127Z,22.11
2023-04-27T08:37:34.191Z,22.08
2023-04-27T08:38:34.252Z,22.06
2023-04-27T08:39:34.312Z,21.95
2023-04-27T08:40:35.353Z,21.95
2023-04-27T08:41:34.398Z,21.95
2023-04-27T08:42:35.444Z,21.94
2023-04-27T08:43:34.517Z,21.94
2023-04-27T08:44:35.828Z,21.86
2023-04-27T08:45:34.545Z,21.75
2023-04-27T08:46:35.556Z,21.56
2023-04-27T08:47:43.308Z,21.46
2023-04-27T08:48:35.599Z,21.39
2023-04-27T08:49:35.568Z,21.34
2023-04-27T08:50:34.564Z,21.28
2023-04-27T08:51:34.600Z,21.28
2023-04-27T08:52:35.545Z,21.22
2023-04-27T08:53:34.542Z,20.98
2023-04-27T08:54:35.524Z,20.85
2023-04-27T08:55:35.522Z,20.87
2023-04-27T08:56:35.512Z,20.86
2023-04-27T08:57:34.500Z,20.85
2023-04-27T08:58:35.492Z,20.89
2023-04-27T08:59:34.516Z,20.97
2023-04-27T09:00:35.492Z,21.06
2023-04-27T09:01:35.532Z,21.16
2023-04-27T09:02:35.620Z,21.25
2023-04-27T09:03:35.605Z,21.31
2023-04-27T09:04:35.594Z,21.38
2023-04-27T09:05:34.523Z,21.47
2023-04-27T09:06:35.785Z,21.52
2023-04-27T09:07:35.439Z,21.58
2023-04-27T09:08:34.450Z,21.62
2023-04-27T09:09:34.411Z,21.65
2023-04-27T09:10:34.411Z,21.63
2023-04-27T09:11:34.402Z,21.63
2023-04-27T09:12:35.404Z,21.70
2023-04-27T09:13:34.396Z,21.74
2023-04-27T09:14:34.381Z,21.78
2023-04-27T09:15:35.363Z,21.80
2023-04-27T09:16:35.415Z,21.84
2023-04-27T09:17:34.371Z,21.87
2023-04-27T09:18:35.362Z,21.90
2023-04-27T09:19:34.381Z,21.91
2023-04-27T09:20:34.346Z,21.95
2023-04-27T09:21:34.375Z,21.94
2023-04-27T09:22:35.445Z,21.96
2023-04-27T09:23:35.469Z,21.99
2023-04-27T09:24:34.499Z,22.00
2023-04-27T09:25:35.527Z,22.00
2023-04-27T09:26:34.581Z,22.02
2023-04-27T09:27:35.587Z,22.07
2023-04-27T09:28:34.597Z,22.11
2023-04-27T09:29:35.620Z,22.11
2023-04-27T09:30:34.639Z,22.12
2023-04-27T09:31:34.678Z,22.14
2023-04-27T09:32:34.699Z,22.15
2023-04-27T09:33:35.679Z,22.14
2023-04-27T09:34:35.692Z,22.14
2023-04-27T09:35:34.851Z,22.15
2023-04-27T09:36:35.770Z,22.14
2023-04-27T09:37:34.840Z,22.12
2023-04-27T09:38:35.869Z,22.13
2023-04-27T09:39:35.914Z,22.16
2023-04-27T09:40:35.958Z,22.17
2023-04-27T09:41:35.992Z,22.21
2023-04-27T09:42:35.045Z,22.23
2023-04-27T09:43:35.091Z,22.20
2023-04-27T09:44:36.154Z,22.22
2023-04-27T09:45:36.202Z,22.25
2023-04-27T09:46:36.199Z,22.27
2023-04-27T09:47:35.248Z,22.22
2023-04-27T09:48:36.289Z,22.21
2023-04-27T09:49:35.836Z,22.23
2023-04-27T09:50:38.077Z,22.30
2023-04-27T09:51:36.431Z,22.28
2023-04-27T09:52:36.382Z,22.06
2023-04-27T09:53:35.367Z,21.92
2023-04-27T09:54:35.388Z,21.81
2023-04-27T09:55:35.350Z,21.78
2023-04-27T09:56:35.343Z,21.85
2023-04-27T09:57:36.373Z,21.90
2023-04-27T09:58:36.335Z,21.94
2023-04-27T09:59:35.317Z,21.98
2023-04-27T10:00:36.317Z,22.00
2023-04-27T10:01:37.261Z,21.99
2023-04-27T10:02:50.059Z,22.05
2023-04-27T10:03:36.360Z,22.09
2023-04-27T10:04:35.478Z,22.15
2023-04-27T10:05:36.278Z,22.21
2023-04-27T10:06:36.259Z,22.26
2023-04-27T10:07:35.431Z,22.33
2023-04-27T10:08:36.258Z,22.37
2023-04-27T10:09:36.261Z,22.42
2023-04-27T10:10:36.232Z,22.47
2023-04-27T10:11:36.216Z,22.51
2023-04-27T10:12:36.223Z,22.56
2023-04-27T10:13:36.209Z,22.60
2023-04-27T10:14:36.207Z,22.65
2023-04-27T10:15:36.186Z,22.69
2023-04-27T10:16:36.186Z,22.72
2023-04-27T10:17:35.225Z,22.76
2023-04-27T10:18:35.176Z,22.80
2023-04-27T10:19:35.146Z,22.83
2023-04-27T10:20:36.160Z,22.86
2023-04-27T10:21:36.144Z,22.90
2023-04-27T10:22:36.051Z,22.92
2023-04-27T10:23:36.182Z,22.96
2023-04-27T10:24:35.104Z,22.99
2023-04-27T10:25:36.136Z,23.03
2023-04-27T10:26:36.522Z,23.07
2023-04-27T10:27:36.099Z,23.11
2023-04-27T10:28:36.073Z,23.15
2023-04-27T10:29:35.083Z,23.18
2023-04-27T10:30:36.123Z,23.22
2023-04-27T10:31:35.215Z,23.24
2023-04-27T10:32:36.067Z,23.25
2023-04-27T10:33:36.051Z,23.29
2023-04-27T10:34:36.046Z,23.31
2023-04-27T10:35:36.052Z,23.33
2023-04-27T10:36:36.026Z,23.35
2023-04-27T10:37:35.016Z,23.36
2023-04-27T10:38:35.007Z,23.38
2023-04-27T10:39:46.823Z,23.40
2023-04-27T10:40:36.022Z,23.42
2023-04-27T10:41:35.992Z,23.46
2023-04-27T10:42:36.003Z,23.53
2023-04-27T10:43:34.979Z,23.53
2023-04-27T10:44:34.964Z,23.47
2023-04-27T10:45:35.974Z,23.46
2023-04-27T10:46:36.073Z,23.46
2023-04-27T10:47:34.974Z,23.45
2023-04-27T10:48:34.964Z,23.43
2023-04-27T10:49:35.948Z,23.40
2023-04-27T10:50:35.927Z,23.35
2023-04-27T10:51:35.914Z,23.34
2023-04-27T10:52:34.925Z,23.33
2023-04-27T10:53:35.916Z,23.31
2023-04-27T10:54:34.897Z,23.30
2023-04-27T10:55:35.932Z,23.28
2023-04-27T10:56:35.893Z,23.27
2023-04-27T10:57:34.880Z,23.29
2023-04-27T10:58:47.966Z,23.28
2023-04-27T10:59:35.862Z,23.26
2023-04-27T11:00:35.872Z,23.25
2023-04-27T11:01:34.905Z,23.26
2023-04-27T11:02:35.906Z,23.26
2023-04-27T11:03:35.932Z,23.25
2023-04-27T11:04:35.878Z,23.25
2023-04-27T11:05:34.849Z,23.25
2023-04-27T11:06:34.828Z,23.23
2023-04-27T11:07:35.851Z,23.21
2023-04-27T11:08:34.799Z,23.21
2023-04-27T11:09:34.818Z,23.20
2023-04-27T11:10:35.882Z,23.18
2023-04-27T11:11:35.846Z,23.18
2023-04-27T11:12:35.780Z,23.17
2023-04-27T11:13:34.924Z,23.16
2023-04-27T11:14:35.758Z,23.15
2023-04-27T11:15:35.744Z,23.15
2023-04-27T11:16:35.759Z,23.15
2023-04-27T11:17:35.783Z,23.15
2023-04-27T11:18:34.731Z,23.16
2023-04-27T11:19:35.711Z,23.16
2023-04-27T11:20:35.721Z,23.16
2023-04-27T11:21:34.700Z,23.15
2023-04-27T11:22:34.704Z,23.16
2023-04-27T11:23:34.685Z,23.18
2023-04-27T11:24:35.690Z,23.17
2023-04-27T11:25:34.686Z,23.17
2023-04-27T11:26:35.710Z,23.17
2023-04-27T11:27:35.777Z,23.14
2023-04-27T11:28:35.800Z,23.14
2023-04-27T11:29:35.838Z,23.13
2023-04-27T11:30:35.885Z,23.13
2023-04-27T11:31:35.964Z,23.12
2023-04-27T11:32:35.942Z,23.11
2023-04-27T11:33:35.950Z,23.10
2023-04-27T11:34:35.960Z,23.10
2023-04-27T11:35:35.968Z,23.09
2023-04-27T11:36:34.991Z,23.07
2023-04-27T11:37:35.040Z,23.05
2023-04-27T11:38:36.084Z,23.04
2023-04-27T11:39:35.080Z,23.03
2023-04-27T11:40:35.079Z,23.02
2023-04-27T11:41:36.081Z,23.01
2023-04-27T11:42:35.163Z,23.01
2023-04-27T11:43:35.124Z,23.01
2023-04-27T11:44:35.094Z,22.99
2023-04-27T11:45:36.136Z,22.99
2023-04-27T11:46:36.220Z,22.98
2023-04-27T11:47:35.196Z,22.98
2023-04-27T11:48:36.208Z,22.99
2023-04-27T11:49:36.237Z,22.99
2023-04-27T11:50:36.288Z,22.97
2023-04-27T11:51:36.308Z,22.98
2023-04-27T11:52:35.372Z,22.98
2023-04-27T11:53:36.384Z,23.00
2023-04-27T11:54:35.431Z,23.02
2023-04-27T11:55:36.497Z,23.02
2023-04-27T11:56:35.554Z,23.01
2023-04-27T11:57:35.602Z,23.00
2023-04-27T11:58:36.686Z,23.01
2023-04-27T11:59:36.681Z,23.01
2023-04-27T12:00:35.766Z,23.00
2023-04-27T12:01:38.359Z,23.00
2023-04-27T12:02:36.886Z,22.99
2023-04-27T12:03:35.945Z,22.96
2023-04-27T12:04:35.972Z,22.95
2023-04-27T12:05:35.842Z,22.95
2023-04-27T12:06:35.765Z,22.96
2023-04-27T12:07:35.725Z,22.95
2023-04-27T12:08:35.709Z,22.94
2023-04-27T12:09:35.694Z,22.93
2023-04-27T12:10:35.713Z,22.92
2023-04-27T12:11:36.696Z,22.90
2023-04-27T12:12:36.750Z,22.90
2023-04-27T12:13:36.670Z,22.89
2023-04-27T12:14:35.700Z,22.89
2023-04-27T12:15:35.670Z,22.89
2023-04-27T12:16:35.728Z,22.89
2023-04-27T12:17:35.760Z,22.88
2023-04-27T12:18:35.689Z,22.89
2023-04-27T12:19:36.634Z,22.89
2023-04-27T12:20:36.631Z,22.89
2023-04-27T12:21:36.624Z,22.91
2023-04-27T12:22:36.621Z,22.92
2023-04-27T12:23:36.602Z,22.92
2023-04-27T12:24:35.604Z,22.84
2023-04-27T12:25:36.611Z,22.80
2023-04-27T12:26:36.576Z,22.78
2023-04-27T12:27:35.579Z,22.78
2023-04-27T12:28:36.566Z,22.78
2023-04-27T12:29:35.564Z,22.79
2023-04-27T12:30:36.676Z,22.81
2023-04-27T12:31:35.655Z,22.81
2023-04-27T12:32:36.559Z,22.80
2023-04-27T12:33:36.542Z,22.80
2023-04-27T12:34:35.517Z,22.80
2023-04-27T12:35:35.522Z,22.80
2023-04-27T12:36:35.502Z,22.81
2023-04-27T12:37:36.494Z,22.81
2023-04-27T12:38:36.516Z,22.79
2023-04-27T12:39:36.487Z,22.79
2023-04-27T12:40:36.465Z,22.79
2023-04-27T12:41:36.456Z,22.79
2023-04-27T12:42:36.468Z,22.79
2023-04-27T12:43:35.446Z,22.79
2023-04-27T12:44:35.440Z,22.77
2023-04-27T12:45:36.436Z,22.76
2023-04-27T12:46:36.513Z,22.76
2023-04-27T12:48:35.454Z,22.74
2023-04-27T12:49:36.404Z,22.73
2023-04-27T12:50:35.381Z,22.73
2023-04-27T12:51:36.397Z,22.72
2023-04-27T12:52:36.389Z,22.72
2023-04-27T12:53:35.356Z,22.72
2023-04-27T12:54:35.354Z,22.72
2023-04-27T12:55:35.343Z,22.72
2023-04-27T12:56:36.351Z,22.72
2023-04-27T12:57:36.333Z,22.72
2023-04-27T12:58:36.888Z,22.71
2023-04-27T12:59:36.332Z,22.71
2023-04-27T13:00:36.317Z,22.72
2023-04-27T13:01:36.402Z,22.70
2023-04-27T13:02:36.455Z,22.71
2023-04-27T13:03:36.473Z,22.71
2023-04-27T13:04:35.417Z,22.71
2023-04-27T13:05:36.287Z,22.70
2023-04-27T13:06:36.298Z,22.70
2023-04-27T13:07:35.262Z,22.69
2023-04-27T13:08:36.262Z,22.69
2023-04-27T13:09:36.269Z,22.69
2023-04-27T13:10:36.258Z,22.68
2023-04-27T13:11:36.242Z,22.70
2023-04-27T13:12:35.240Z,22.72
2023-04-27T13:13:36.234Z,22.73
2023-04-27T13:14:36.225Z,22.71
2023-04-27T13:15:36.270Z,22.70
2023-04-27T13:16:35.237Z,22.71
2023-04-27T13:17:35.181Z,22.71
2023-04-27T13:18:36.193Z,22.71
2023-04-27T13:19:36.176Z,22.72
2023-04-27T13:20:35.174Z,22.72
2023-04-27T13:21:35.184Z,22.72
2023-04-27T13:22:35.154Z,22.70
2023-04-27T13:23:36.135Z,22.69
2023-04-27T13:24:36.147Z,22.68
2023-04-27T13:25:35.124Z,22.68
2023-04-27T13:26:35.131Z,22.67
2023-04-27T13:27:35.120Z,22.67
2023-04-27T13:28:35.113Z,22.68
2023-04-27T13:29:36.084Z,22.69
2023-04-27T13:30:36.094Z,22.69
2023-04-27T13:31:36.148Z,22.69
2023-04-27T13:32:36.137Z,22.70
2023-04-27T13:33:35.145Z,22.69
2023-04-27T13:34:35.101Z,22.68
2023-04-27T13:35:36.093Z,22.68
2023-04-27T13:36:35.096Z,22.67
2023-04-27T13:37:35.113Z,22.67
2023-04-27T13:38:35.134Z,22.67
2023-04-27T13:39:35.155Z,22.66
2023-04-27T13:40:35.172Z,22.66
2023-04-27T13:41:35.178Z,22.65
2023-04-27T13:42:35.176Z,22.66
2023-04-27T13:43:36.223Z,22.66
2023-04-27T13:44:35.256Z,22.66
2023-04-27T13:45:36.221Z,22.66
2023-04-27T13:46:36.224Z,22.68
2023-04-27T13:47:36.251Z,22.68
2023-04-27T13:48:36.217Z,22.69
2023-04-27T13:49:35.220Z,22.70
2023-04-27T13:50:35.258Z,22.71
2023-04-27T13:51:36.226Z,22.70
2023-04-27T13:52:36.235Z,22.70
2023-04-27T13:53:36.254Z,22.70
2023-04-27T13:54:36.233Z,22.70
2023-04-27T13:55:35.250Z,22.69
2023-04-27T13:56:36.251Z,22.69
2023-04-27T13:57:35.261Z,22.67
2023-04-27T13:58:36.270Z,22.68
2023-04-27T13:59:35.278Z,22.69
2023-04-27T14:00:35.323Z,22.67
2023-04-27T14:01:35.323Z,22.68
2023-04-27T14:02:36.417Z,22.68
2023-04-27T14:03:35.428Z,22.68
2023-04-27T14:04:36.346Z,22.68
2023-04-27T14:05:36.333Z,22.69
2023-04-27T14:06:36.367Z,22.70
2023-04-27T14:07:36.328Z,22.69
2023-04-27T14:08:36.336Z,22.69
2023-04-27T14:09:36.343Z,22.70
2023-04-27T14:10:35.362Z,22.69
2023-04-27T14:11:48.577Z,22.69
2023-04-27T14:12:36.360Z,22.67
2023-04-27T14:13:35.340Z,22.67
2023-04-27T14:14:35.330Z,22.67
2023-04-27T14:15:35.455Z,22.69
2023-04-27T14:16:35.404Z,22.69
2023-04-27T14:17:35.997Z,22.69
2023-04-27T14:18:36.301Z,22.69
2023-04-27T14:19:35.298Z,22.69
2023-04-27T14:20:36.337Z,22.68
2023-04-27T14:21:36.292Z,22.68
2023-04-27T14:22:36.539Z,22.68
2023-04-27T14:23:36.277Z,22.68
2023-04-27T14:24:36.266Z,22.67
2023-04-27T14:25:35.355Z,22.67
2023-04-27T14:26:36.263Z,22.67
2023-04-27T14:27:36.245Z,22.66
2023-04-27T14:28:35.234Z,22.65
2023-04-27T14:29:36.220Z,22.64
2023-04-27T14:30:35.516Z,22.63
2023-04-27T14:31:35.223Z,22.63
2023-04-27T14:32:36.202Z,22.63
2023-04-27T14:33:35.195Z,22.63
2023-04-27T14:34:36.194Z,22.63
2023-04-27T14:35:36.190Z,22.61
2023-04-27T14:36:36.170Z,22.61
2023-04-27T14:37:35.922Z,22.60
2023-04-27T14:38:35.204Z,22.61
2023-04-27T14:39:35.169Z,22.61
2023-04-27T14:40:36.151Z,22.61
2023-04-27T14:41:36.441Z,22.61
2023-04-27T14:42:36.131Z,22.60
2023-04-27T14:43:35.122Z,22.59
2023-04-27T14:44:36.109Z,22.60
2023-04-27T14:45:47.736Z,22.59
2023-04-27T14:46:36.132Z,22.58
2023-04-27T14:47:35.099Z,22.58
2023-04-27T14:48:35.096Z,22.57
2023-04-27T14:49:36.069Z,22.56
2023-04-27T14:50:36.074Z,22.56
2023-04-27T14:51:35.054Z,22.55
2023-04-27T14:52:35.047Z,22.56
2023-04-27T14:53:36.049Z,22.56
2023-04-27T14:54:35.080Z,22.56
2023-04-27T14:55:36.033Z,22.56
2023-04-27T14:56:35.053Z,22.55
2023-04-27T14:57:35.015Z,22.55
2023-04-27T14:58:36.008Z,22.56
2023-04-27T14:59:36.011Z,22.56
2023-04-27T15:00:35.989Z,22.56
2023-04-27T15:01:36.054Z,22.56
2023-04-27T15:02:35.012Z,22.56
2023-04-27T15:03:35.209Z,22.56
2023-04-27T15:04:36.082Z,22.56
2023-04-27T15:05:34.953Z,22.55
2023-04-27T15:06:34.951Z,22.55
2023-04-27T15:07:35.940Z,22.56
2023-04-27T15:08:34.933Z,22.56
2023-04-27T15:09:35.914Z,22.56
2023-04-27T15:10:36.025Z,22.56
2023-04-27T15:11:34.912Z,22.56
2023-04-27T15:12:35.942Z,22.55
2023-04-27T15:13:35.956Z,22.55
2023-04-27T15:14:34.989Z,22.55
2023-04-27T15:15:36.073Z,22.54
2023-04-27T15:16:35.062Z,22.54
2023-04-27T15:17:36.066Z,22.54
2023-04-27T15:18:36.065Z,22.54
2023-04-27T15:19:36.086Z,22.55
2023-04-27T15:20:36.098Z,22.55
2023-04-27T15:21:36.137Z,22.54
2023-04-27T15:22:35.168Z,22.55
2023-04-27T15:23:35.156Z,22.55
2023-04-27T15:24:35.189Z,22.56
2023-04-27T15:25:35.223Z,22.55
2023-04-27T15:26:36.281Z,22.55
2023-04-27T15:27:36.233Z,22.54
2023-04-27T15:28:36.275Z,22.53
2023-04-27T15:29:36.289Z,22.53
